Time;durP1;ratioP1;P1;durP2;ratioP2;P2;SDS_P1;SDS_P2;PMS_P1;PMS_P2;Temp;Humidity;BMP_temperature;BMP_pressure;BME280_temperature;BME280_humidity;BME280_pressure;Samples;Min_cycle;Max_cycle;Signal;HPM_P1;HPM_P2
2023/05/18 00:00:38;;;;;;;;;;;;;;;12.27;100.00;99137.97;5054098;28;591;-64
2023/05/18 00:03:05;;;;;;;;;;;;;;;12.28;100.00;99136.75;5054033;28;1878;-65
2023/05/18 00:05:33;;;;;;;;;;;;;;;12.31;100.00;99135.09;5053978;28;828;-64
2023/05/18 00:08:00;;;;;;;;;;;;;;;12.29;100.00;99138.31;5035942;28;1272;-65
2023/05/18 00:10:27;;;;;;;;;;;;;;;12.28;100.00;99141.50;5053446;28;1190;-64
2023/05/18 00:15:57;;;;;;;;;;;;;;;12.29;100.00;99134.75;5053762;28;607;-64
2023/05/18 00:21:29;;;;;;;;;;;;;;;12.25;100.00;99140.38;5053792;28;1914;-64
2023/05/18 00:23:57;;;;;;;;;;;;;;;12.24;100.00;99144.34;5053503;28;942;-65
2023/05/18 00:26:25;;;;;;;;;;;;;;;12.23;100.00;99148.34;5053490;28;887;-64
2023/05/18 00:28:52;;;;;;;;;;;;;;;12.22;100.00;99144.00;5053526;28;903;-63
2023/05/18 00:31:18;;;;;;;;;;;;;;;12.28;100.00;99147.06;5053529;28;878;-63
2023/05/18 00:33:45;;;;;;;;;;;;;;;12.30;100.00;99150.94;5053525;28;902;-64
2023/05/18 00:36:12;;;;;;;;;;;;;;;12.29;100.00;99149.41;5053419;28;882;-63
2023/05/18 00:38:39;;;;;;;;;;;;;;;12.28;100.00;99147.06;5053252;28;852;-64
2023/05/18 00:41:06;;;;;;;;;;;;;;;12.26;100.00;99147.47;5053362;28;823;-65
2023/05/18 00:43:33;;;;;;;;;;;;;;;12.29;100.00;99148.59;5053141;28;1881;-64
2023/05/18 00:49:02;;;;;;;;;;;;;;;12.31;100.00;99151.72;5053181;28;595;-64
2023/05/18 00:51:31;;;;;;;;;;;;;;;12.33;100.00;99149.31;5053042;28;835;-64
2023/05/18 00:54:00;;;;;;;;;;;;;;;12.34;100.00;99153.66;5053728;28;899;-65
2023/05/18 00:56:27;;;;;;;;;;;;;;;12.31;100.00;99155.28;5053095;28;910;-65
2023/05/18 00:58:55;;;;;;;;;;;;;;;12.29;100.00;99162.47;5053016;28;902;-63
2023/05/18 01:01:30;;;;;;;;;;;;;;;12.27;100.00;99160.13;5052876;28;1894;-65
2023/05/18 01:07:05;;;;;;;;;;;;;;;12.32;100.00;99165.16;5052852;28;610;-63
2023/05/18 01:15:38;;;;;;;;;;;;;;;12.21;100.00;99157.09;5013003;28;614;-66
2023/05/18 01:18:13;;;;;;;;;;;;;;;12.20;100.00;99155.50;5012853;28;894;-64
2023/05/18 01:20:56;;;;;;;;;;;;;;;12.20;100.00;99158.28;5013260;28;859;-64
2023/05/18 01:23:43;;;;;;;;;;;;;;;12.24;100.00;99166.53;5012920;28;1942;-63
2023/05/18 01:26:14;;;;;;;;;;;;;;;12.24;100.00;99174.84;5013466;28;817;-63
2023/05/18 01:28:45;;;;;;;;;;;;;;;12.25;100.00;99177.19;5012730;28;839;-63
2023/05/18 01:31:14;;;;;;;;;;;;;;;12.24;100.00;99172.84;5012713;28;860;-63
2023/05/18 01:42:53;;;;;;;;;;;;;;;12.24;100.00;99192.22;5012434;28;1957;-63
2023/05/18 01:45:21;;;;;;;;;;;;;;;12.31;100.00;99196.06;5012370;28;887;-63
2023/05/18 01:47:48;;;;;;;;;;;;;;;12.34;100.00;99187.69;5012670;28;820;-65
2023/05/18 01:53:24;;;;;;;;;;;;;;;12.39;100.00;99194.69;5012263;28;627;-63
2023/05/18 02:04:59;;;;;;;;;;;;;;;12.42;100.00;99193.84;5012106;28;644;-63
2023/05/18 02:07:25;;;;;;;;;;;;;;;12.42;100.00;99199.41;5012061;28;835;-63
2023/05/18 02:09:52;;;;;;;;;;;;;;;12.41;100.00;99201.38;5013045;28;1336;-63
2023/05/18 02:12:19;;;;;;;;;;;;;;;12.39;100.00;99208.56;5051647;28;875;-65
2023/05/18 02:14:46;;;;;;;;;;;;;;;12.38;100.00;99201.47;5051586;28;808;-65
2023/05/18 02:17:13;;;;;;;;;;;;;;;12.38;100.00;99207.78;5051564;28;903;-63
2023/05/18 02:19:41;;;;;;;;;;;;;;;12.39;100.00;99200.25;5051500;28;809;-64
2023/05/18 02:22:09;;;;;;;;;;;;;;;12.38;100.00;99199.47;5051414;28;1981;-63
2023/05/18 02:24:35;;;;;;;;;;;;;;;12.39;100.00;99194.69;5051312;28;836;-63
2023/05/18 02:27:02;;;;;;;;;;;;;;;12.39;100.00;99194.69;5051502;28;883;-64
2023/05/18 02:32:31;;;;;;;;;;;;;;;12.35;100.00;99197.53;5051454;28;682;-63
2023/05/18 02:35:02;;;;;;;;;;;;;;;12.35;100.00;99202.31;5050842;28;880;-63
2023/05/18 02:37:28;;;;;;;;;;;;;;;12.34;100.00;99190.44;5051313;28;844;-64
2023/05/18 02:39:55;;;;;;;;;;;;;;;12.34;100.00;99201.53;5051309;28;892;-64
2023/05/18 02:42:22;;;;;;;;;;;;;;;12.35;100.00;99211.41;5051169;28;1890;-63
2023/05/18 02:44:49;;;;;;;;;;;;;;;12.36;100.00;99207.44;5051617;28;796;-63
2023/05/18 02:47:16;;;;;;;;;;;;;;;12.38;100.00;99202.25;5051160;28;894;-65
2023/05/18 02:49:43;;;;;;;;;;;;;;;12.37;100.00;99202.66;5051291;28;808;-65
2023/05/18 02:55:13;;;;;;;;;;;;;;;12.35;100.00;99194.00;5051190;28;686;-65
2023/05/18 02:57:45;;;;;;;;;;;;;;;12.37;100.00;99197.13;5051201;28;852;-63
2023/05/18 03:00:15;;;;;;;;;;;;;;;12.38;100.00;99198.69;5051383;28;929;-65
2023/05/18 03:02:42;;;;;;;;;;;;;;;12.39;100.00;99209.31;5051324;28;1957;-62
2023/05/18 03:05:09;;;;;;;;;;;;;;;12.41;100.00;99220.75;5051062;28;859;-63
2023/05/18 03:13:42;;;;;;;;;;;;;;;12.45;100.00;99226.25;5051026;28;607;-65
2023/05/18 03:16:09;;;;;;;;;;;;;;;12.49;100.00;99217.84;5051179;28;884;-65
2023/05/18 03:18:36;;;;;;;;;;;;;;;12.52;100.00;99230.84;5051191;28;891;-66
2023/05/18 03:21:03;;;;;;;;;;;;;;;12.57;100.00;99235.91;5050964;28;890;-64
2023/05/18 03:23:30;;;;;;;;;;;;;;;12.59;100.00;99230.72;5051023;28;1914;-65
2023/05/18 03:25:57;;;;;;;;;;;;;;;12.63;100.00;99242.47;5050877;28;860;-63
2023/05/18 03:34:29;;;;;;;;;;;;;;;12.69;100.00;99259.38;5050847;28;622;-64
2023/05/18 03:39:59;;;;;;;;;;;;;;;12.68;100.00;99268.94;5050756;28;619;-64
2023/05/18 03:42:26;;;;;;;;;;;;;;;12.57;100.00;99269.16;5050709;28;1886;-63
2023/05/18 03:44:52;;;;;;;;;;;;;;;12.42;100.00;99263.13;5050706;28;946;-63
2023/05/18 03:47:20;;;;;;;;;;;;;;;12.31;100.00;99257.03;5051583;28;867;-64
2023/05/18 03:52:51;;;;;;;;;;;;;;;12.14;100.00;99256.16;5054409;28;603;-63
2023/05/18 03:55:20;;;;;;;;;;;;;;;12.10;100.00;99258.22;5054419;28;914;-65
2023/05/18 04:00:49;;;;;;;;;;;;;;;12.10;100.00;99261.81;5054109;28;615;-63
2023/05/18 04:09:22;;;;;;;;;;;;;;;12.19;100.00;99261.22;5054037;28;940;-63
2023/05/18 04:14:53;;;;;;;;;;;;;;;12.17;100.00;99266.41;5054180;28;697;-63
2023/05/18 04:20:22;;;;;;;;;;;;;;;12.35;100.00;99274.34;5053733;28;586;-63
2023/05/18 04:22:49;;;;;;;;;;;;;;;12.45;100.00;99278.91;5053325;28;1910;-65
2023/05/18 04:25:16;;;;;;;;;;;;;;;12.51;100.00;99282.72;5053598;28;844;-65
2023/05/18 04:27:46;;;;;;;;;;;;;;;12.54;100.00;99283.88;5053557;28;856;-63
2023/05/18 04:30:12;;;;;;;;;;;;;;;12.48;100.00;99283.56;5053512;28;852;-63
2023/05/18 04:32:41;;;;;;;;;;;;;;;12.35;100.00;99296.53;5053459;28;800;-64
2023/05/18 04:35:08;;;;;;;;;;;;;;;12.22;100.00;99299.94;5053409;28;828;-63
2023/05/18 04:37:34;;;;;;;;;;;;;;;12.11;100.00;99299.38;5053389;28;887;-63
2023/05/18 04:40:05;;;;;;;;;;;;;;;12.00;100.00;99299.56;5053306;28;856;-63
2023/05/18 04:42:33;;;;;;;;;;;;;;;11.93;100.00;99305.25;5053977;28;1945;-63
2023/05/18 04:45:00;;;;;;;;;;;;;;;11.87;100.00;99312.44;5053417;28;907;-62
2023/05/18 04:47:28;;;;;;;;;;;;;;;11.84;100.00;99314.09;5053431;28;891;-62
2023/05/18 04:49:55;;;;;;;;;;;;;;;11.81;100.00;99314.91;5035232;28;1527;-62
2023/05/18 04:55:26;;;;;;;;;;;;;;;11.78;100.00;99313.00;5053117;28;681;-62
2023/05/18 04:57:55;;;;;;;;;;;;;;;11.78;100.00;99306.69;5052497;28;925;-62
2023/05/18 05:00:25;;;;;;;;;;;;;;;11.77;100.00;99310.66;5053313;28;848;-62
2023/05/18 05:02:52;;;;;;;;;;;;;;;11.76;100.00;99311.88;5052951;28;1921;-62
2023/05/18 05:05:19;;;;;;;;;;;;;;;11.80;100.00;99313.34;5052838;28;827;-61
2023/05/18 05:07:48;;;;;;;;;;;;;;;11.79;100.00;99308.25;5052840;28;863;-61
2023/05/18 05:10:14;;;;;;;;;;;;;;;11.81;100.00;99308.59;5052453;28;1323;-60
2023/05/18 05:12:41;;;;;;;;;;;;;;;11.83;100.00;99303.41;5052637;28;883;-60
2023/05/18 05:15:08;;;;;;;;;;;;;;;11.86;100.00;99297.03;5052577;28;943;-60
2023/05/18 05:17:35;;;;;;;;;;;;;;;11.92;100.00;99300.91;5052655;28;907;-59
2023/05/18 05:20:03;;;;;;;;;;;;;;;11.99;100.00;99294.44;5052472;28;892;-59
2023/05/18 05:22:30;;;;;;;;;;;;;;;11.99;100.00;99291.66;5052404;28;1985;-59
2023/05/18 05:24:57;;;;;;;;;;;;;;;12.03;100.00;99293.19;5052465;28;828;-60
2023/05/18 05:27:25;;;;;;;;;;;;;;;12.04;100.00;99289.22;5052476;28;883;-59
2023/05/18 05:29:52;;;;;;;;;;;;;;;12.11;100.00;99284.75;5052290;28;942;-59
2023/05/18 05:32:18;;;;;;;;;;;;;;;12.14;100.00;99284.69;5052399;28;804;-58
2023/05/18 05:34:46;;;;;;;;;;;;;;;12.03;100.00;99275.78;5052132;28;919;-60
2023/05/18 05:37:14;;;;;;;;;;;;;;;12.03;100.00;99278.53;5052307;28;883;-59
2023/05/18 05:39:41;;;;;;;;;;;;;;;12.08;100.00;99278.06;5052224;28;899;-60
2023/05/18 05:42:08;;;;;;;;;;;;;;;12.05;100.00;99279.69;5052094;28;1890;-60
2023/05/18 05:44:35;;;;;;;;;;;;;;;12.05;100.00;99279.69;5052094;28;856;-60
2023/05/18 05:47:02;;;;;;;;;;;;;;;12.05;100.00;99288.00;5052194;28;883;-60
2023/05/18 05:49:29;;;;;;;;;;;;;;;12.11;100.00;99293.03;5052064;28;863;-59
2023/05/18 05:51:56;;;;;;;;;;;;;;;12.15;100.00;99300.06;5052210;28;828;-60
2023/05/18 05:54:22;;;;;;;;;;;;;;;12.20;100.00;99287.72;5052034;28;835;-59
2023/05/18 05:56:49;;;;;;;;;;;;;;;12.28;100.00;99288.38;5051728;28;868;-59
2023/05/18 05:59:16;;;;;;;;;;;;;;;12.26;100.00;99289.56;5052019;28;828;-59
2023/05/18 06:01:41;;;;;;;;;;;;;;;12.28;100.00;99288.38;5033983;28;1955;-59
2023/05/18 06:04:11;;;;;;;;;;;;;;;12.26;100.00;99294.31;5051790;28;820;-59
2023/05/18 06:06:38;;;;;;;;;;;;;;;12.25;100.00;99292.78;5051755;28;824;-60
2023/05/18 06:09:05;;;;;;;;;;;;;;;12.26;100.00;99297.09;5051612;28;1003;-60
2023/05/18 06:11:32;;;;;;;;;;;;;;;12.30;100.00;99300.56;5050516;28;1226;-60
2023/05/18 06:13:59;;;;;;;;;;;;;;;12.38;100.00;99293.69;5051470;28;987;-60
2023/05/18 06:16:26;;;;;;;;;;;;;;;12.58;100.00;99306.75;5051553;28;859;-60
2023/05/18 06:18:52;;;;;;;;;;;;;;;12.81;100.00;99316.97;5051709;28;840;-60
2023/05/18 06:21:19;;;;;;;;;;;;;;;13.05;100.00;99312.06;5033619;28;1176;-60
2023/05/18 06:23:46;;;;;;;;;;;;;;;13.34;100.00;99308.66;5051465;28;1969;-60
2023/05/18 06:26:13;;;;;;;;;;;;;;;13.70;100.00;99316.88;5051507;28;824;-62
2023/05/18 06:28:40;;;;;;;;;;;;;;;14.10;100.00;99319.41;5051484;28;895;-61
2023/05/18 06:31:07;;;;;;;;;;;;;;;14.42;100.00;99321.31;5051647;28;899;-60
2023/05/18 06:33:35;;;;;;;;;;;;;;;14.70;100.00;99328.09;5051353;28;940;-61
2023/05/18 06:36:02;;;;;;;;;;;;;;;14.97;100.00;99332.44;5051345;28;903;-60
2023/05/18 06:38:29;;;;;;;;;;;;;;;15.22;100.00;99337.25;5051382;28;856;-60
2023/05/18 06:40:56;;;;;;;;;;;;;;;15.32;100.00;99333.34;5051269;28;890;-61
2023/05/18 06:43:25;;;;;;;;;;;;;;;15.44;100.00;99328.97;5051282;28;1890;-61
2023/05/18 06:45:52;;;;;;;;;;;;;;;15.53;100.00;99333.88;5051292;28;842;-61
2023/05/18 06:48:19;;;;;;;;;;;;;;;15.62;100.00;99322.84;5051532;28;878;-62
2023/05/18 06:50:46;;;;;;;;;;;;;;;15.79;100.00;99322.72;5051136;28;982;-60
2023/05/18 06:53:13;;;;;;;;;;;;;;;16.09;100.00;99335.22;5051417;28;832;-61
2023/05/18 06:55:40;;;;;;;;;;;;;;;16.46;100.00;99336.28;5051198;28;894;-61
2023/05/18 06:58:07;;;;;;;;;;;;;;;16.24;100.00;99344.66;5051150;28;866;-61
2023/05/18 07:00:34;;;;;;;;;;;;;;;16.08;100.00;99348.38;5051167;28;832;-62
2023/05/18 07:03:02;;;;;;;;;;;;;;;16.02;100.00;99358.53;5051018;28;1878;-62
2023/05/18 07:05:29;;;;;;;;;;;;;;;15.75;100.00;99359.06;5051213;28;823;-61
2023/05/18 07:07:56;;;;;;;;;;;;;;;15.55;100.00;99364.06;5050927;28;946;-61
2023/05/18 07:10:23;;;;;;;;;;;;;;;15.46;100.00;99362.72;5051000;28;1130;-61
2023/05/18 07:12:50;;;;;;;;;;;;;;;15.35;100.00;99356.72;5051031;28;902;-63
2023/05/18 07:15:17;;;;;;;;;;;;;;;15.30;100.00;99349.72;5050988;28;871;-62
2023/05/18 07:17:44;;;;;;;;;;;;;;;15.35;100.00;99365.09;5050841;28;974;-62
2023/05/18 07:20:11;;;;;;;;;;;;;;;15.18;100.00;99358.84;5050954;28;860;-61
2023/05/18 07:22:38;;;;;;;;;;;;;;;15.06;100.00;99354.03;5053721;28;1973;-62
2023/05/18 07:25:05;;;;;;;;;;;;;;;14.90;100.00;99350.13;5054794;28;894;-65
2023/05/18 07:27:33;;;;;;;;;;;;;;;14.77;100.00;99349.34;5054699;28;873;-61
2023/05/18 07:29:59;;;;;;;;;;;;;;;14.61;100.00;99352.97;5054595;28;1111;-62
2023/05/18 07:32:26;;;;;;;;;;;;;;;14.48;100.00;99347.34;5054776;28;832;-62
2023/05/18 07:34:53;;;;;;;;;;;;;;;14.42;100.00;99338.00;5054519;28;823;-62
2023/05/18 07:37:20;;;;;;;;;;;;;;;14.40;100.00;99345.19;5054547;28;804;-62
2023/05/18 07:39:47;;;;;;;;;;;;;;;14.48;100.00;99357.69;5054753;28;871;-62
2023/05/18 07:42:14;;;;;;;;;;;;;;;14.53;100.00;99356.34;5054404;28;1889;-62
2023/05/18 07:44:41;;;;;;;;;;;;;;;14.59;100.00;99360.19;5054332;28;942;-63
2023/05/18 07:47:08;;;;;;;;;;;;;;;14.59;100.00;99355.41;5054360;28;824;-62
2023/05/18 07:49:35;;;;;;;;;;;;;;;14.72;100.00;99347.09;5054315;28;824;-62
2023/05/18 07:52:02;;;;;;;;;;;;;;;14.85;100.00;99336.78;5054184;28;906;-63
2023/05/18 07:54:29;;;;;;;;;;;;;;;14.95;100.00;99348.81;5054174;28;883;-63
2023/05/18 07:56:56;;;;;;;;;;;;;;;15.06;100.00;99340.13;5054180;28;872;-64
2023/05/18 07:59:23;;;;;;;;;;;;;;;15.19;100.00;99343.72;5054135;28;1027;-62
2023/05/18 08:01:50;;;;;;;;;;;;;;;15.43;100.00;99340.59;5054010;28;1890;-62
2023/05/18 08:04:17;;;;;;;;;;;;;;;15.60;100.00;99352.38;5054059;28;823;-64
2023/05/18 08:06:43;;;;;;;;;;;;;;;15.87;100.00;99355.47;5053997;28;887;-63
2023/05/18 08:09:10;;;;;;;;;;;;;;;16.19;100.00;99367.50;5054019;28;913;-64
2023/05/18 08:11:37;;;;;;;;;;;;;;;16.50;100.00;99367.63;5032439;28;1498;-62
2023/05/18 08:14:04;;;;;;;;;;;;;;;16.79;100.00;99379.75;5033981;28;883;-62
2023/05/18 08:16:35;;;;;;;;;;;;;;;16.86;100.00;99388.66;5033911;28;859;-63
2023/05/18 08:19:03;;;;;;;;;;;;;;;17.05;100.00;99394.38;5033762;28;820;-62
2023/05/18 08:21:29;;;;;;;;;;;;;;;17.35;100.00;99403.97;5032508;28;864;-62
2023/05/18 08:23:55;;;;;;;;;;;;;;;17.38;100.00;99405.84;5033687;28;1910;-62
2023/05/18 08:26:23;;;;;;;;;;;;;;;17.33;100.00;99415.59;5033656;28;871;-65
2023/05/18 08:28:50;;;;;;;;;;;;;;;17.01;100.00;99418.84;5032458;28;1323;-63
2023/05/18 08:31:17;;;;;;;;;;;;;;;16.61;100.00;99430.63;5033910;28;860;-63
2023/05/18 08:33:43;;;;;;;;;;;;;;;16.25;100.00;99431.84;5032775;28;882;-62
2023/05/18 08:36:10;;;;;;;;;;;;;;;16.12;100.00;99432.66;5033672;28;863;-62
2023/05/18 08:38:37;;;;;;;;;;;;;;;15.89;100.00;99438.63;5033402;28;896;-63
2023/05/18 08:41:25;;;;;;;;;;;;;;;15.75;100.00;99442.66;5033474;28;851;-63
2023/05/18 08:43:53;;;;;;;;;;;;;;;15.80;100.00;99444.09;5033343;28;1886;-66
2023/05/18 08:46:23;;;;;;;;;;;;;;;15.93;100.00;99442.84;5033281;28;910;-63
2023/05/18 08:48:52;;;;;;;;;;;;;;;16.02;100.00;99446.97;5033664;28;847;-64
2023/05/18 08:51:20;;;;;;;;;;;;;;;16.10;100.00;99443.47;5033233;28;893;-63
2023/05/18 08:53:51;;;;;;;;;;;;;;;16.15;100.00;99455.31;5033218;28;844;-63
2023/05/18 08:56:20;;;;;;;;;;;;;;;16.26;100.00;99453.72;5033389;28;816;-63
2023/05/18 08:58:47;;;;;;;;;;;;;;;16.17;100.00;99456.41;5033069;28;908;-64
2023/05/18 09:01:15;;;;;;;;;;;;;;;16.09;100.00;99447.50;5033297;28;836;-63
2023/05/18 09:03:43;;;;;;;;;;;;;;;16.06;100.00;99448.41;5031832;28;1969;-63
2023/05/18 09:06:10;;;;;;;;;;;;;;;16.00;100.00;99447.44;5032955;28;859;-64
2023/05/18 09:08:37;;;;;;;;;;;;;;;15.85;100.00;99449.09;5032930;28;821;-62
2023/05/18 09:11:05;;;;;;;;;;;;;;;15.75;100.00;99451.00;5041968;28;1213;-63
2023/05/18 09:13:32;;;;;;;;;;;;;;;15.70;100.00;99454.31;5052797;28;824;-63
2023/05/18 09:15:59;;;;;;;;;;;;;;;15.65;100.00;99458.44;5052885;28;899;-64
2023/05/18 09:18:26;;;;;;;;;;;;;;;15.65;100.00;99460.44;5052649;28;832;-64
2023/05/18 09:20:53;;;;;;;;;;;;;;;15.68;100.00;99457.56;5052610;28;875;-62
2023/05/18 09:23:20;;;;;;;;;;;;;;;15.81;100.00;99457.59;5052454;28;1953;-62
2023/05/18 09:25:48;;;;;;;;;;;;;;;15.87;100.00;99466.16;5034637;28;1310;-62
2023/05/18 09:28:35;;;;;;;;;;;;;;;15.85;100.00;99466.63;5052705;28;899;-63
2023/05/18 09:31:03;;;;;;;;;;;;;;;15.81;100.00;99467.94;5052230;28;1200;-62
2023/05/18 09:33:35;;;;;;;;;;;;;;;15.84;100.00;99464.28;5052380;28;907;-64
2023/05/18 09:36:05;;;;;;;;;;;;;;;15.83;100.00;99471.84;5052222;28;850;-64
2023/05/18 09:38:44;;;;;;;;;;;;;;;15.82;100.00;99475.09;5052377;28;820;-64
2023/05/18 10:09:42;;;;;;;;;;;;;;;14.56;100.00;99519.59;5752793;22;1679;-52
2023/05/18 10:12:16;;;;;;;;;;;;;;;14.61;100.00;99519.06;5071763;28;861;-53
2023/05/18 10:14:43;;;;;;;;;;;;;;;14.70;100.00;99522.00;5071729;28;905;-53
2023/05/18 10:17:11;;;;;;;;;;;;;;;14.84;100.00;99531.97;5071632;28;875;-56
2023/05/18 10:19:39;;;;;;;;;;;;;;;14.84;100.00;99529.97;5071582;28;883;-56
2023/05/18 10:22:06;;;;;;;;;;;;;;;14.86;100.00;99533.09;5071713;28;1972;-55
2023/05/18 10:24:38;;;;;;;;;;;;;;;14.89;100.00;99537.00;5071467;28;1286;-55
2023/05/18 10:27:07;;;;;;;;;;;;;;;15.00;100.00;99526.38;5071579;28;831;-57
2023/05/18 10:29:36;;;;;;;;;;;;;;;14.85;100.00;99536.31;5072071;28;960;-54
2023/05/18 10:32:03;;;;;;;;;;;;;;;14.76;100.00;99550.84;5071364;28;956;-54
2023/05/18 10:34:31;;;;;;;;;;;;;;;14.69;100.00;99548.25;5071500;28;874;-56
2023/05/18 10:37:02;;;;;;;;;;;;;;;14.71;100.00;99554.16;5071621;28;921;-56
2023/05/18 10:39:30;;;;;;;;;;;;;;;14.68;100.00;99544.69;5071265;28;962;-54
2023/05/18 10:41:59;;;;;;;;;;;;;;;14.77;100.00;99541.28;5071595;28;1938;-55
2023/05/18 10:44:24;;;;;;;;;;;;;;;14.76;100.00;99536.16;5070135;28;887;-55
2023/05/18 10:46:52;;;;;;;;;;;;;;;14.43;100.00;99541.75;5071409;28;864;-55
2023/05/18 10:49:23;;;;;;;;;;;;;;;14.28;100.00;99532.97;5071531;28;935;-57
2023/05/18 10:51:54;;;;;;;;;;;;;;;14.44;100.00;99527.38;5071563;28;938;-56
2023/05/18 10:54:22;;;;;;;;;;;;;;;14.55;100.00;99515.22;5071171;28;823;-57
2023/05/18 10:56:52;;;;;;;;;;;;;;;14.35;100.00;99520.88;5071735;28;871;-56
2023/05/18 10:59:19;;;;;;;;;;;;;;;14.27;100.00;99517.50;5076127;28;804;-56
2023/05/18 11:01:47;;;;;;;;;;;;;;;14.49;100.00;99510.19;5075520;28;1950;-56
2023/05/18 11:04:15;;;;;;;;;;;;;;;14.58;100.00;99508.81;5075294;28;950;-56
2023/05/18 11:06:42;;;;;;;;;;;;;;;14.50;100.00;99500.63;5075247;28;839;-56
2023/05/18 11:09:21;;;;;;;;;;;;;;;14.53;100.00;99503.75;5075265;28;991;-55
2023/05/18 11:11:55;;;;;;;;;;;;;;;14.57;100.00;99502.47;5075387;28;889;-56
2023/05/18 11:14:26;;;;;;;;;;;;;;;14.59;100.00;99515.94;5075421;28;917;-57
2023/05/18 11:16:53;;;;;;;;;;;;;;;14.62;100.00;99507.50;5075114;28;911;-56
2023/05/18 11:19:25;;;;;;;;;;;;;;;14.59;100.00;99508.38;5074998;28;839;-56
2023/05/18 11:21:52;;;;;;;;;;;;;;;14.59;100.00;99511.16;5074845;28;1909;-56
2023/05/18 11:24:23;;;;;;;;;;;;;;;14.84;100.00;99518.84;5074757;28;1059;-56
2023/05/18 11:26:54;;;;;;;;;;;;;;;14.98;100.00;99523.25;5074797;28;898;-54
2023/05/18 11:29:23;;;;;;;;;;;;;;;14.87;100.00;99519.97;5075002;28;831;-56
2023/05/18 11:31:52;;;;;;;;;;;;;;;14.75;100.00;99524.25;5074591;28;982;-57
2023/05/18 11:34:52;;;;;;;;;;;;;;;14.54;100.00;99535.91;5074846;28;839;-55
2023/05/18 11:37:37;;;;;;;;;;;;;;;14.41;100.00;99533.81;5012705;28;1436;-56
2023/05/18 11:40:05;;;;;;;;;;;;;;;14.68;100.00;99514.09;5012718;28;903;-55
2023/05/18 11:42:34;;;;;;;;;;;;;;;14.87;100.00;99517.97;5012612;28;1938;-57
2023/05/18 11:45:08;;;;;;;;;;;;;;;14.70;100.00;99497.75;5012705;28;871;-57
2023/05/18 11:47:35;;;;;;;;;;;;;;;14.56;100.00;99497.34;5012464;28;1046;-57
2023/05/18 11:50:05;;;;;;;;;;;;;;;14.30;100.00;99511.06;5012583;28;808;-56
2023/05/18 11:52:31;;;;;;;;;;;;;;;14.03;100.00;99503.75;5012630;28;977;-56
2023/05/18 11:54:58;;;;;;;;;;;;;;;14.09;100.00;99499.25;5012722;28;777;-57
2023/05/18 11:57:44;;;;;;;;;;;;;;;14.04;100.00;99508.13;5012708;28;888;-56
2023/05/18 12:00:11;;;;;;;;;;;;;;;14.08;100.00;99508.00;5012286;28;983;-57
2023/05/18 12:02:41;;;;;;;;;;;;;;;14.00;100.00;99503.88;5012150;28;1945;-57
2023/05/18 12:05:08;;;;;;;;;;;;;;;13.82;100.00;99505.03;5012552;28;918;-56
2023/05/18 12:07:36;;;;;;;;;;;;;;;13.91;100.00;99512.78;5011452;28;1115;-56
2023/05/18 12:10:13;;;;;;;;;;;;;;;13.84;100.00;99512.94;5011492;28;1238;-55
2023/05/18 12:12:39;;;;;;;;;;;;;;;13.67;100.00;99493.47;5038327;28;1054;-57
2023/05/18 12:15:07;;;;;;;;;;;;;;;13.30;100.00;99497.47;5073934;28;870;-57
2023/05/18 12:17:51;;;;;;;;;;;;;;;13.13;100.00;99496.59;5073831;28;941;-54
2023/05/18 12:20:19;;;;;;;;;;;;;;;13.24;100.00;99494.38;5073887;28;843;-54
2023/05/18 12:22:49;;;;;;;;;;;;;;;13.45;100.00;99495.94;5073626;28;1985;-56
2023/05/18 12:25:15;;;;;;;;;;;;;;;13.27;100.00;99495.50;5073612;28;995;-56
2023/05/18 12:27:43;;;;;;;;;;;;;;;13.24;100.00;99486.03;5073544;28;946;-55
2023/05/18 12:30:12;;;;;;;;;;;;;;;13.22;100.00;99487.69;5073967;28;843;-57
2023/05/18 12:32:43;;;;;;;;;;;;;;;13.22;100.00;99485.69;5073819;28;866;-57
2023/05/18 12:35:10;;;;;;;;;;;;;;;13.24;100.00;99471.41;5073509;28;895;-57
2023/05/18 12:37:44;;;;;;;;;;;;;;;13.32;100.00;99460.97;5073490;28;827;-58
2023/05/18 12:40:14;;;;;;;;;;;;;;;13.36;100.00;99462.44;5073330;28;930;-58
2023/05/18 12:42:52;;;;;;;;;;;;;;;13.40;100.00;99452.06;5073490;28;1953;-58
2023/05/18 12:45:22;;;;;;;;;;;;;;;13.52;100.00;99436.69;5073330;28;850;-58
2023/05/18 12:47:56;;;;;;;;;;;;;;;13.74;100.00;99441.75;5073546;28;847;-57
2023/05/18 12:50:27;;;;;;;;;;;;;;;14.01;100.00;99453.41;5073279;28;846;-57
2023/05/18 12:52:56;;;;;;;;;;;;;;;14.26;100.00;99444.44;5073168;28;949;-57
2023/05/18 12:55:26;;;;;;;;;;;;;;;14.42;100.00;99445.63;5073108;28;822;-58
2023/05/18 12:58:01;;;;;;;;;;;;;;;14.58;100.00;99447.63;5073136;28;799;-56
2023/05/18 13:00:36;;;;;;;;;;;;;;;14.86;100.00;99452.41;5073313;28;839;-55
2023/05/18 13:03:07;;;;;;;;;;;;;;;15.09;100.00;99447.81;5073002;28;1953;-57
2023/05/18 13:05:35;;;;;;;;;;;;;;;15.23;100.00;99452.16;5071651;28;1627;-56
2023/05/18 13:08:02;;;;;;;;;;;;;;;15.26;100.00;99449.28;5072817;28;930;-58
2023/05/18 13:10:32;;;;;;;;;;;;;;;15.24;100.00;99448.94;5072578;28;1205;-56
2023/05/18 13:13:02;;;;;;;;;;;;;;;15.25;100.00;99450.47;5072977;28;866;-58
2023/05/18 13:15:34;;;;;;;;;;;;;;;15.30;100.00;99449.97;5072805;28;954;-57
2023/05/18 13:18:09;;;;;;;;;;;;;;;15.35;100.00;99447.84;5072698;28;827;-56
2023/05/18 13:20:36;;;;;;;;;;;;;;;15.46;100.00;99446.28;5072203;28;934;-58
2023/05/18 13:23:04;;;;;;;;;;;;;;;15.49;100.00;99437.06;5071151;28;1942;-57
2023/05/18 13:25:30;;;;;;;;;;;;;;;15.51;100.00;99439.38;5072401;28;962;-57
2023/05/18 13:27:57;;;;;;;;;;;;;;;15.55;100.00;99437.25;5072465;28;879;-56
2023/05/18 13:30:24;;;;;;;;;;;;;;;15.62;100.00;99425.91;5072344;28;906;-57
2023/05/18 13:32:51;;;;;;;;;;;;;;;15.64;100.00;99442.16;5071065;28;1646;-56
2023/05/18 13:35:19;;;;;;;;;;;;;;;15.71;100.00;99442.75;5072245;28;945;-57
2023/05/18 13:37:47;;;;;;;;;;;;;;;15.77;100.00;99443.00;5072356;28;816;-56
2023/05/18 13:40:14;;;;;;;;;;;;;;;15.85;100.00;99447.09;5072197;28;831;-56
2023/05/18 13:42:42;;;;;;;;;;;;;;;15.73;100.00;99439.53;5072054;28;1961;-58
2023/05/18 13:45:10;;;;;;;;;;;;;;;15.58;100.00;99439.16;5072069;28;1725;-57
2023/05/18 13:47:37;;;;;;;;;;;;;;;15.51;100.00;99431.00;5072058;28;983;-58
2023/05/18 13:50:08;;;;;;;;;;;;;;;15.38;100.00;99421.88;5070861;28;840;-58
2023/05/18 13:52:35;;;;;;;;;;;;;;;15.27;100.00;99413.84;5072140;28;891;-58
2023/05/18 13:55:03;;;;;;;;;;;;;;;15.25;100.00;99417.06;5072347;28;878;-58
2023/05/18 13:57:30;;;;;;;;;;;;;;;15.26;100.00;99413.09;5071942;28;881;-58
2023/05/18 13:59:58;;;;;;;;;;;;;;;15.42;100.00;99403.06;5071894;28;953;-56
2023/05/18 14:02:25;;;;;;;;;;;;;;;15.54;100.00;99416.22;5071657;28;1893;-56
2023/05/18 14:04:52;;;;;;;;;;;;;;;15.59;100.00;99424.00;5071788;28;858;-57
2023/05/18 14:07:18;;;;;;;;;;;;;;;15.66;100.00;99423.78;5071753;28;850;-57
2023/05/18 14:09:45;;;;;;;;;;;;;;;15.74;100.00;99429.94;5070276;28;1685;-57
2023/05/18 14:12:12;;;;;;;;;;;;;;;15.70;100.00;99420.88;5071789;28;874;-58
2023/05/18 14:14:40;;;;;;;;;;;;;;;15.67;100.00;99414.19;5071668;28;910;-56
2023/05/18 14:17:06;;;;;;;;;;;;;;;15.74;100.00;99420.81;5071608;28;1068;-55
2023/05/18 14:19:33;;;;;;;;;;;;;;;15.85;100.00;99437.94;5071838;28;859;-56
2023/05/18 14:22:00;;;;;;;;;;;;;;;15.93;100.00;99434.47;5071476;28;1981;-55
2023/05/18 14:24:27;;;;;;;;;;;;;;;15.95;100.00;99442.41;5071560;28;917;-56
2023/05/18 14:26:55;;;;;;;;;;;;;;;15.96;100.00;99440.38;5071558;28;831;-54
2023/05/18 14:29:22;;;;;;;;;;;;;;;15.96;100.00;99437.59;5071824;28;898;-56
2023/05/18 14:31:49;;;;;;;;;;;;;;;15.95;100.00;99436.81;5070987;28;831;-56
2023/05/18 14:34:15;;;;;;;;;;;;;;;15.94;100.00;99429.72;5071608;28;1049;-56
2023/05/18 14:36:42;;;;;;;;;;;;;;;15.90;100.00;99431.81;5071420;28;850;-57
2023/05/18 14:39:09;;;;;;;;;;;;;;;15.90;100.00;99429.03;5071506;28;843;-55
2023/05/18 14:41:36;;;;;;;;;;;;;;;15.93;100.00;99426.13;5071556;28;882;-56
2023/05/18 14:44:03;;;;;;;;;;;;;;;15.97;100.00;99430.81;5071224;28;1885;-51
2023/05/18 14:46:30;;;;;;;;;;;;;;;16.02;100.00;99419.09;5071464;28;850;-57
2023/05/18 14:48:57;;;;;;;;;;;;;;;15.93;100.00;99394.69;5071395;28;937;-55
2023/05/18 14:51:23;;;;;;;;;;;;;;;16.12;100.00;99406.81;5071326;28;950;-57